sensor_id;sensor_type;location;lat;lon;timestamp;pressure;altitude;pressure_sealevel;temperature;humidity
75418;BME280;63997;52.112;5.420;2023-10-08T00:02:10;102359.84;;;17.11;94.98
75418;BME280;63997;52.112;5.420;2023-10-08T00:04:37;102347.53;;;17.10;95.34
75418;BME280;63997;52.112;5.420;2023-10-08T00:07:04;102362.09;;;17.09;95.38
75418;BME280;63997;52.112;5.420;2023-10-08T00:09:34;102370.16;;;17.09;95.69
75418;BME280;63997;52.112;5.420;2023-10-08T00:12:04;102391.66;;;17.09;95.73
75418;BME280;63997;52.112;5.420;2023-10-08T00:14:31;102391.66;;;17.09;95.93
75418;BME280;63997;52.112;5.420;2023-10-08T00:17:13;102402.41;;;17.09;96.09
75418;BME280;63997;52.112;5.420;2023-10-08T00:19:40;102396.59;;;17.07;96.45
75418;BME280;63997;52.112;5.420;2023-10-08T00:22:10;102392.00;;;17.08;96.71
75418;BME280;63997;52.112;5.420;2023-10-08T00:24:39;102388.53;;;17.07;96.76
75418;BME280;63997;52.112;5.420;2023-10-08T00:27:08;102388.81;;;17.06;96.35
75418;BME280;63997;52.112;5.420;2023-10-08T00:29:35;102388.69;;;17.02;96.54
75418;BME280;63997;52.112;5.420;2023-10-08T00:32:05;102390.28;;;17.03;97.06
75418;BME280;63997;52.112;5.420;2023-10-08T00:34:41;102382.22;;;17.03;97.20
75418;BME280;63997;52.112;5.420;2023-10-08T00:37:10;102391.06;;;17.04;97.24
75418;BME280;63997;52.112;5.420;2023-10-08T00:39:37;102377.94;;;17.02;97.03
75418;BME280;63997;52.112;5.420;2023-10-08T00:42:06;102374.47;;;17.02;97.29
75418;BME280;63997;52.112;5.420;2023-10-08T00:44:39;102375.59;;;17.01;97.38
75418;BME280;63997;52.112;5.420;2023-10-08T00:47:16;102371.19;;;16.96;97.13
75418;BME280;63997;52.112;5.420;2023-10-08T00:49:43;102367.72;;;16.96;97.08
75418;BME280;63997;52.112;5.420;2023-10-08T00:52:12;102363.75;;;16.93;97.33
75418;BME280;63997;52.112;5.420;2023-10-08T00:54:40;102360.63;;;16.91;97.61
75418;BME280;63997;52.112;5.420;2023-10-08T00:57:25;102351.28;;;16.88;97.52
75418;BME280;63997;52.112;5.420;2023-10-08T00:59:52;102352.28;;;16.84;97.61
75418;BME280;63997;52.112;5.420;2023-10-08T01:02:26;102348.34;;;16.81;97.83
75418;BME280;63997;52.112;5.420;2023-10-08T01:05:09;102348.66;;;16.80;97.68
75418;BME280;63997;52.112;5.420;2023-10-08T01:07:39;102346.63;;;16.77;97.83
75418;BME280;63997;52.112;5.420;2023-10-08T01:10:10;102341.91;;;16.74;98.19
75418;BME280;63997;52.112;5.420;2023-10-08T01:12:39;102352.47;;;16.70;97.98
75418;BME280;63997;52.112;5.420;2023-10-08T01:15:21;102354.38;;;16.70;97.93
75418;BME280;63997;52.112;5.420;2023-10-08T01:17:56;102343.63;;;16.70;97.98
75418;BME280;63997;52.112;5.420;2023-10-08T01:20:31;102341.72;;;16.70;98.32
75418;BME280;63997;52.112;5.420;2023-10-08T01:23:07;102337.47;;;16.69;98.49
75418;BME280;63997;52.112;5.420;2023-10-08T01:25:43;102334.47;;;16.71;98.79
75418;BME280;63997;52.112;5.420;2023-10-08T01:28:17;102346.66;;;16.68;98.52
75418;BME280;63997;52.112;5.420;2023-10-08T01:30:56;102353.13;;;16.67;98.67
75418;BME280;63997;52.112;5.420;2023-10-08T01:33:27;102348.38;;;16.64;98.41
75418;BME280;63997;52.112;5.420;2023-10-08T01:35:57;102344.47;;;16.61;98.34
75418;BME280;63997;52.112;5.420;2023-10-08T01:38:29;102368.94;;;16.60;98.20
75418;BME280;63997;52.112;5.420;2023-10-08T01:40:55;102370.06;;;16.59;98.15
75418;BME280;63997;52.112;5.420;2023-10-08T01:43:23;102370.84;;;16.59;98.25
75418;BME280;63997;52.112;5.420;2023-10-08T01:45:49;102372.28;;;16.57;98.43
75418;BME280;63997;52.112;5.420;2023-10-08T01:48:17;102378.44;;;16.57;98.32
75418;BME280;63997;52.112;5.420;2023-10-08T01:50:55;102382.25;;;16.56;98.29
75418;BME280;63997;52.112;5.420;2023-10-08T01:53:22;102375.28;;;16.55;98.35
75418;BME280;63997;52.112;5.420;2023-10-08T01:55:48;102384.44;;;16.54;98.54
75418;BME280;63997;52.112;5.420;2023-10-08T01:58:16;102404.38;;;16.53;98.58
75418;BME280;63997;52.112;5.420;2023-10-08T02:00:46;102408.94;;;16.53;98.63
75418;BME280;63997;52.112;5.420;2023-10-08T02:03:14;102418.91;;;16.52;98.77
75418;BME280;63997;52.112;5.420;2023-10-08T02:05:45;102423.16;;;16.53;99.09
75418;BME280;63997;52.112;5.420;2023-10-08T02:08:13;102428.53;;;16.53;99.16
75418;BME280;63997;52.112;5.420;2023-10-08T02:10:41;102426.19;;;16.52;99.39
75418;BME280;63997;52.112;5.420;2023-10-08T02:13:09;102420.97;;;16.47;99.45
75418;BME280;63997;52.112;5.420;2023-10-08T02:15:36;102424.78;;;16.46;99.44
75418;BME280;63997;52.112;5.420;2023-10-08T02:18:06;102417.00;;;16.44;99.84
75418;BME280;63997;52.112;5.420;2023-10-08T02:20:33;102433.47;;;16.43;99.69
75418;BME280;63997;52.112;5.420;2023-10-08T02:23:00;102419.91;;;16.39;99.75
75418;BME280;63997;52.112;5.420;2023-10-08T02:25:27;102431.72;;;16.38;100.00
75418;BME280;63997;52.112;5.420;2023-10-08T02:27:54;102420.06;;;16.34;99.67
75418;BME280;63997;52.112;5.420;2023-10-08T02:30:20;102376.00;;;16.26;99.97
75418;BME280;63997;52.112;5.420;2023-10-08T02:32:47;102423.06;;;16.24;100.00
75418;BME280;63997;52.112;5.420;2023-10-08T02:35:13;102402.53;;;16.28;100.00
75418;BME280;63997;52.112;5.420;2023-10-08T02:37:40;102452.91;;;16.31;100.00
75418;BME280;63997;52.112;5.420;2023-10-08T02:40:08;102431.09;;;16.32;100.00
75418;BME280;63997;52.112;5.420;2023-10-08T02:42:57;102419.28;;;16.33;100.00
75418;BME280;63997;52.112;5.420;2023-10-08T02:45:28;102405.03;;;16.33;100.00
75418;BME280;63997;52.112;5.420;2023-10-08T02:47:55;102389.13;;;16.28;100.00
75418;BME280;63997;52.112;5.420;2023-10-08T02:50:22;102384.53;;;16.20;100.00
75418;BME280;63997;52.112;5.420;2023-10-08T02:52:49;102402.22;;;16.21;100.00
75418;BME280;63997;52.112;5.420;2023-10-08T02:55:17;102449.94;;;16.24;100.00
75418;BME280;63997;52.112;5.420;2023-10-08T02:58:01;102412.97;;;16.29;100.00
75418;BME280;63997;52.112;5.420;2023-10-08T03:00:30;102430.97;;;16.29;100.00
75418;BME280;63997;52.112;5.420;2023-10-08T03:03:01;102436.34;;;16.29;100.00
75418;BME280;63997;52.112;5.420;2023-10-08T03:05:29;102404.75;;;16.26;100.00
75418;BME280;63997;52.112;5.420;2023-10-08T03:08:03;102404.28;;;16.24;100.00
75418;BME280;63997;52.112;5.420;2023-10-08T03:10:39;102443.44;;;16.25;100.00
75418;BME280;63997;52.112;5.420;2023-10-08T03:13:08;102420.53;;;16.27;100.00
75418;BME280;63997;52.112;5.420;2023-10-08T03:15:36;102435.22;;;16.30;100.00
75418;BME280;63997;52.112;5.420;2023-10-08T03:18:21;102428.75;;;16.31;100.00
75418;BME280;63997;52.112;5.420;2023-10-08T03:20:48;102421.00;;;16.29;100.00
75418;BME280;63997;52.112;5.420;2023-10-08T03:23:17;102426.22;;;16.26;100.00
75418;BME280;63997;52.112;5.420;2023-10-08T03:25:51;102417.72;;;16.24;100.00
75418;BME280;63997;52.112;5.420;2023-10-08T03:28:22;102425.75;;;16.24;100.00
75418;BME280;63997;52.112;5.420;2023-10-08T03:30:52;102398.44;;;16.22;100.00
75418;BME280;63997;52.112;5.420;2023-10-08T03:33:22;102402.09;;;16.17;100.00
75418;BME280;63997;52.112;5.420;2023-10-08T03:35:50;102410.44;;;16.16;100.00
75418;BME280;63997;52.112;5.420;2023-10-08T03:38:19;102424.66;;;16.16;100.00
75418;BME280;63997;52.112;5.420;2023-10-08T03:40:55;102456.56;;;16.18;100.00
75418;BME280;63997;52.112;5.420;2023-10-08T03:43:32;102477.72;;;16.19;100.00
75418;BME280;63997;52.112;5.420;2023-10-08T03:46:09;102471.25;;;16.20;100.00
75418;BME280;63997;52.112;5.420;2023-10-08T03:48:42;102461.28;;;16.21;100.00
75418;BME280;63997;52.112;5.420;2023-10-08T03:51:12;102458.31;;;16.22;100.00
75418;BME280;63997;52.112;5.420;2023-10-08T03:53:39;102458.59;;;16.21;100.00
75418;BME280;63997;52.112;5.420;2023-10-08T03:56:28;102469.34;;;16.21;100.00
75418;BME280;63997;52.112;5.420;2023-10-08T03:58:58;102469.03;;;16.22;100.00
75418;BME280;63997;52.112;5.420;2023-10-08T04:01:29;102481.34;;;16.23;100.00
75418;BME280;63997;52.112;5.420;2023-10-08T04:03:59;102477.22;;;16.26;100.00
75418;BME280;63997;52.112;5.420;2023-10-08T04:06:28;102467.59;;;16.25;100.00
75418;BME280;63997;52.112;5.420;2023-10-08T04:09:00;102494.91;;;16.27;100.00
75418;BME280;63997;52.112;5.420;2023-10-08T04:11:37;102515.31;;;16.28;100.00
75418;BME280;63997;52.112;5.420;2023-10-08T04:14:22;102502.34;;;16.30;100.00
75418;BME280;63997;52.112;5.420;2023-10-08T04:16:50;102513.41;;;16.28;100.00
75418;BME280;63997;52.112;5.420;2023-10-08T04:19:21;102523.53;;;16.23;100.00
75418;BME280;63997;52.112;5.420;2023-10-08T04:21:53;102534.09;;;16.19;100.00
75418;BME280;63997;52.112;5.420;2023-10-08T04:24:27;102529.19;;;16.12;100.00
75418;BME280;63997;52.112;5.420;2023-10-08T04:27:01;102524.31;;;16.06;100.00
75418;BME280;63997;52.112;5.420;2023-10-08T04:29:29;102510.25;;;16.00;99.61
75418;BME280;63997;52.112;5.420;2023-10-08T04:32:03;102523.97;;;15.99;99.19
75418;BME280;63997;52.112;5.420;2023-10-08T04:34:35;102515.28;;;15.93;99.01
75418;BME280;63997;52.112;5.420;2023-10-08T04:37:02;102517.50;;;15.91;99.13
75418;BME280;63997;52.112;5.420;2023-10-08T04:39:30;102518.59;;;15.90;99.05
75418;BME280;63997;52.112;5.420;2023-10-08T04:42:01;102515.41;;;15.88;98.87
75418;BME280;63997;52.112;5.420;2023-10-08T04:44:37;102499.50;;;15.83;98.42
75418;BME280;63997;52.112;5.420;2023-10-08T04:47:09;102488.59;;;15.79;98.21
75418;BME280;63997;52.112;5.420;2023-10-08T04:49:35;102488.41;;;15.76;98.41
75418;BME280;63997;52.112;5.420;2023-10-08T04:52:11;102487.97;;;15.74;98.09
75418;BME280;63997;52.112;5.420;2023-10-08T04:54:42;102508.13;;;15.71;98.09
75418;BME280;63997;52.112;5.420;2023-10-08T04:57:18;102525.03;;;15.72;98.03
75418;BME280;63997;52.112;5.420;2023-10-08T04:59:49;102529.91;;;15.70;98.15
75418;BME280;63997;52.112;5.420;2023-10-08T05:02:20;102541.75;;;15.69;98.17
75418;BME280;63997;52.112;5.420;2023-10-08T05:04:52;102534.03;;;15.67;98.10
75418;BME280;63997;52.112;5.420;2023-10-08T05:07:19;102537.81;;;15.66;98.07
75418;BME280;63997;52.112;5.420;2023-10-08T05:10:07;102540.78;;;15.65;98.18
75418;BME280;63997;52.112;5.420;2023-10-08T05:12:34;102538.41;;;15.63;97.96
75418;BME280;63997;52.112;5.420;2023-10-08T05:15:17;102521.34;;;15.59;98.07
75418;BME280;63997;52.112;5.420;2023-10-08T05:17:48;102527.47;;;15.59;97.96
75418;BME280;63997;52.112;5.420;2023-10-08T05:20:19;102533.66;;;15.60;98.00
75418;BME280;63997;52.112;5.420;2023-10-08T05:22:56;102545.78;;;15.57;98.18
75418;BME280;63997;52.112;5.420;2023-10-08T05:25:32;102551.94;;;15.58;98.32
75418;BME280;63997;52.112;5.420;2023-10-08T05:28:06;102561.09;;;15.57;98.30
75418;BME280;63997;52.112;5.420;2023-10-08T05:30:36;102571.34;;;15.55;98.56
75418;BME280;63997;52.112;5.420;2023-10-08T05:33:06;102576.53;;;15.51;98.14
75418;BME280;63997;52.112;5.420;2023-10-08T05:35:40;102576.34;;;15.48;97.31
75418;BME280;63997;52.112;5.420;2023-10-08T05:38:11;102574.75;;;15.38;96.98
75418;BME280;63997;52.112;5.420;2023-10-08T05:41:05;102583.72;;;15.33;96.65
75418;BME280;63997;52.112;5.420;2023-10-08T05:43:38;102587.44;;;15.24;96.30
75418;BME280;63997;52.112;5.420;2023-10-08T05:46:15;102585.81;;;15.14;96.03
75418;BME280;63997;52.112;5.420;2023-10-08T05:49:04;102580.75;;;15.13;95.79
75418;BME280;63997;52.112;5.420;2023-10-08T05:51:36;102590.22;;;15.10;95.54
75418;BME280;63997;52.112;5.420;2023-10-08T05:54:20;102635.69;;;15.01;94.42
75418;BME280;63997;52.112;5.420;2023-10-08T05:56:53;102635.16;;;14.91;93.62
75418;BME280;63997;52.112;5.420;2023-10-08T05:59:43;102599.47;;;14.81;93.62
75418;BME280;63997;52.112;5.420;2023-10-08T06:02:29;102595.50;;;14.79;93.25
75418;BME280;63997;52.112;5.420;2023-10-08T06:05:04;102580.66;;;14.73;93.27
75418;BME280;63997;52.112;5.420;2023-10-08T06:07:51;102579.69;;;14.69;93.24
75418;BME280;63997;52.112;5.420;2023-10-08T06:10:29;102581.88;;;14.67;93.64
75418;BME280;63997;52.112;5.420;2023-10-08T06:15:40;102605.78;;;14.63;93.31
75418;BME280;63997;52.112;5.420;2023-10-08T06:18:27;102619.00;;;14.60;93.38
75418;BME280;63997;52.112;5.420;2023-10-08T06:20:54;102626.53;;;14.58;92.87
75418;BME280;63997;52.112;5.420;2023-10-08T06:23:22;102635.19;;;14.54;93.11
75418;BME280;63997;52.112;5.420;2023-10-08T06:25:53;102639.84;;;14.49;93.24
75418;BME280;63997;52.112;5.420;2023-10-08T06:28:42;102634.50;;;14.49;93.67
75418;BME280;63997;52.112;5.420;2023-10-08T06:31:10;102642.81;;;14.47;93.36
75418;BME280;63997;52.112;5.420;2023-10-08T06:33:44;102650.34;;;14.45;93.26
75418;BME280;63997;52.112;5.420;2023-10-08T06:36:11;102646.66;;;14.41;92.99
75418;BME280;63997;52.112;5.420;2023-10-08T06:38:39;102650.53;;;14.35;93.14
75418;BME280;63997;52.112;5.420;2023-10-08T06:41:08;102649.97;;;14.38;93.23
75418;BME280;63997;52.112;5.420;2023-10-08T06:43:37;102641.13;;;14.38;92.75
75418;BME280;63997;52.112;5.420;2023-10-08T06:46:04;102648.38;;;14.37;92.46
75418;BME280;63997;52.112;5.420;2023-10-08T06:48:34;102657.47;;;14.36;92.56
75418;BME280;63997;52.112;5.420;2023-10-08T06:51:01;102660.16;;;14.36;92.47
75418;BME280;63997;52.112;5.420;2023-10-08T06:53:40;102652.13;;;14.36;93.04
75418;BME280;63997;52.112;5.420;2023-10-08T06:56:07;102655.91;;;14.35;92.84
75418;BME280;63997;52.112;5.420;2023-10-08T06:58:36;102665.03;;;14.34;92.65
75418;BME280;63997;52.112;5.420;2023-10-08T07:01:02;102660.47;;;14.35;92.57
75418;BME280;63997;52.112;5.420;2023-10-08T07:03:32;102666.59;;;14.35;92.86
75418;BME280;63997;52.112;5.420;2023-10-08T07:06:00;102660.16;;;14.36;93.11
75418;BME280;63997;52.112;5.420;2023-10-08T07:08:31;102670.59;;;14.38;93.42
75418;BME280;63997;52.112;5.420;2023-10-08T07:11:02;102673.25;;;14.38;93.28
75418;BME280;63997;52.112;5.420;2023-10-08T07:13:33;102676.41;;;14.40;92.94
75418;BME280;63997;52.112;5.420;2023-10-08T07:16:02;102678.31;;;14.39;93.00
75418;BME280;63997;52.112;5.420;2023-10-08T07:18:30;102676.09;;;14.41;92.73
75418;BME280;63997;52.112;5.420;2023-10-08T07:21:00;102679.28;;;14.43;92.88
75418;BME280;63997;52.112;5.420;2023-10-08T07:23:28;102687.53;;;14.47;92.26
75418;BME280;63997;52.112;5.420;2023-10-08T07:26:02;102682.38;;;14.50;92.53
75418;BME280;63997;52.112;5.420;2023-10-08T07:28:38;102678.59;;;14.51;92.48
75418;BME280;63997;52.112;5.420;2023-10-08T07:31:19;102678.31;;;14.53;93.08
75418;BME280;63997;52.112;5.420;2023-10-08T07:33:51;102689.69;;;14.59;92.91
75418;BME280;63997;52.112;5.420;2023-10-08T07:36:42;102683.44;;;14.63;92.41
75418;BME280;63997;52.112;5.420;2023-10-08T07:39:09;102680.66;;;14.68;91.99
75418;BME280;63997;52.112;5.420;2023-10-08T07:41:49;102671.72;;;14.73;91.61
75418;BME280;63997;52.112;5.420;2023-10-08T07:44:16;102680.22;;;14.75;91.71
75418;BME280;63997;52.112;5.420;2023-10-08T07:46:51;102680.63;;;14.82;91.26
75418;BME280;63997;52.112;5.420;2023-10-08T07:49:20;102684.78;;;14.88;91.54
75418;BME280;63997;52.112;5.420;2023-10-08T07:51:49;102697.75;;;14.95;91.55
75418;BME280;63997;52.112;5.420;2023-10-08T07:54:23;102680.47;;;15.01;91.95
75418;BME280;63997;52.112;5.420;2023-10-08T07:56:51;102702.56;;;15.06;91.09
75418;BME280;63997;52.112;5.420;2023-10-08T07:59:40;102712.69;;;15.10;90.85
75418;BME280;63997;52.112;5.420;2023-10-08T08:02:09;102711.47;;;15.16;90.86
75418;BME280;63997;52.112;5.420;2023-10-08T08:04:39;102718.78;;;15.24;89.95
75418;BME280;63997;52.112;5.420;2023-10-08T08:07:07;102713.97;;;15.34;89.76
75418;BME280;63997;52.112;5.420;2023-10-08T08:09:34;102722.09;;;15.43;89.21
75418;BME280;63997;52.112;5.420;2023-10-08T08:12:05;102731.41;;;15.46;88.83
75418;BME280;63997;52.112;5.420;2023-10-08T08:14:38;102727.63;;;15.47;88.10
75418;BME280;63997;52.112;5.420;2023-10-08T08:17:08;102734.41;;;15.44;86.94
75418;BME280;63997;52.112;5.420;2023-10-08T08:19:41;102732.94;;;15.38;87.06
75418;BME280;63997;52.112;5.420;2023-10-08T08:22:10;102739.19;;;15.33;86.52
75418;BME280;63997;52.112;5.420;2023-10-08T08:24:58;102745.94;;;15.31;85.92
75418;BME280;63997;52.112;5.420;2023-10-08T08:27:42;102740.13;;;15.29;86.33
75418;BME280;63997;52.112;5.420;2023-10-08T08:30:15;102742.78;;;15.29;86.37
75418;BME280;63997;52.112;5.420;2023-10-08T08:32:46;102753.03;;;15.27;86.91
75418;BME280;63997;52.112;5.420;2023-10-08T08:35:19;102759.66;;;15.29;86.68
75418;BME280;63997;52.112;5.420;2023-10-08T08:37:46;102763.94;;;15.30;86.34
75418;BME280;63997;52.112;5.420;2023-10-08T08:40:13;102769.19;;;15.35;86.40
75418;BME280;63997;52.112;5.420;2023-10-08T08:42:51;102781.78;;;15.35;85.29
75418;BME280;63997;52.112;5.420;2023-10-08T08:45:21;102769.97;;;15.36;85.41
75418;BME280;63997;52.112;5.420;2023-10-08T08:47:48;102780.09;;;15.39;86.52
75418;BME280;63997;52.112;5.420;2023-10-08T08:50:15;102780.25;;;15.43;85.86
75418;BME280;63997;52.112;5.420;2023-10-08T08:52:44;102775.22;;;15.41;84.70
75418;BME280;63997;52.112;5.420;2023-10-08T08:55:12;102770.03;;;15.45;84.76
75418;BME280;63997;52.112;5.420;2023-10-08T08:57:47;102768.81;;;15.51;84.26
75418;BME280;63997;52.112;5.420;2023-10-08T09:00:15;102755.97;;;15.61;84.93
75418;BME280;63997;52.112;5.420;2023-10-08T09:02:46;102757.13;;;15.69;85.07
75418;BME280;63997;52.112;5.420;2023-10-08T09:05:15;102750.22;;;15.77;84.17
75418;BME280;63997;52.112;5.420;2023-10-08T09:08:06;102751.19;;;15.81;83.17
75418;BME280;63997;52.112;5.420;2023-10-08T09:10:35;102752.31;;;15.80;83.51
75418;BME280;63997;52.112;5.420;2023-10-08T09:13:06;102755.47;;;15.82;83.22
75418;BME280;63997;52.112;5.420;2023-10-08T09:15:35;102744.13;;;15.85;82.63
75418;BME280;63997;52.112;5.420;2023-10-08T09:18:03;102742.09;;;15.91;82.54
75418;BME280;63997;52.112;5.420;2023-10-08T09:20:31;102741.84;;;16.01;82.33
75418;BME280;63997;52.112;5.420;2023-10-08T09:23:08;102747.06;;;16.06;82.39
75418;BME280;63997;52.112;5.420;2023-10-08T09:25:43;102740.75;;;16.10;82.51
75418;BME280;63997;52.112;5.420;2023-10-08T09:28:10;102745.66;;;16.08;82.78
75418;BME280;63997;52.112;5.420;2023-10-08T09:30:40;102748.97;;;16.05;82.80
75418;BME280;63997;52.112;5.420;2023-10-08T09:33:08;102753.22;;;16.06;82.16
75418;BME280;63997;52.112;5.420;2023-10-08T09:35:35;102755.47;;;16.13;81.14
75418;BME280;63997;52.112;5.420;2023-10-08T09:38:03;102754.03;;;16.16;81.57
75418;BME280;63997;52.112;5.420;2023-10-08T09:40:30;102761.34;;;16.24;82.00
75418;BME280;63997;52.112;5.420;2023-10-08T09:42:58;102775.88;;;16.23;81.49
75418;BME280;63997;52.112;5.420;2023-10-08T09:45:25;102767.19;;;16.26;81.97
75418;BME280;63997;52.112;5.420;2023-10-08T09:47:53;102766.75;;;16.32;81.57
75418;BME280;63997;52.112;5.420;2023-10-08T09:50:28;102765.34;;;16.35;81.67
75418;BME280;63997;52.112;5.420;2023-10-08T09:53:01;102762.31;;;16.28;81.83
75418;BME280;63997;52.112;5.420;2023-10-08T09:55:35;102770.84;;;16.30;82.40
75418;BME280;63997;52.112;5.420;2023-10-08T09:58:02;102756.31;;;16.31;82.40
75418;BME280;63997;52.112;5.420;2023-10-08T10:00:30;102762.34;;;16.36;82.72
75418;BME280;63997;52.112;5.420;2023-10-08T10:02:58;102767.09;;;16.39;82.72
75418;BME280;63997;52.112;5.420;2023-10-08T10:05:34;102754.31;;;16.45;82.67
75418;BME280;63997;52.112;5.420;2023-10-08T10:08:04;102754.19;;;16.50;82.91
75418;BME280;63997;52.112;5.420;2023-10-08T10:10:37;102749.75;;;16.54;83.28
75418;BME280;63997;52.112;5.420;2023-10-08T10:13:05;102757.06;;;16.62;82.71
75418;BME280;63997;52.112;5.420;2023-10-08T10:15:36;102749.03;;;16.71;83.20
75418;BME280;63997;52.112;5.420;2023-10-08T10:18:13;102757.88;;;16.72;82.44
75418;BME280;63997;52.112;5.420;2023-10-08T10:20:46;102767.16;;;16.65;82.31
75418;BME280;63997;52.112;5.420;2023-10-08T10:23:34;102759.41;;;16.64;82.38
75418;BME280;63997;52.112;5.420;2023-10-08T10:26:01;102759.59;;;16.67;82.81
75418;BME280;63997;52.112;5.420;2023-10-08T10:28:29;102773.56;;;16.78;82.02
75418;BME280;63997;52.112;5.420;2023-10-08T10:30:55;102767.22;;;16.83;82.48
75418;BME280;63997;52.112;5.420;2023-10-08T10:33:32;102760.75;;;16.84;81.73
75418;BME280;63997;52.112;5.420;2023-10-08T10:36:03;102765.16;;;16.88;81.50
75418;BME280;63997;52.112;5.420;2023-10-08T10:38:31;102757.75;;;16.94;80.66
75418;BME280;63997;52.112;5.420;2023-10-08T10:41:03;102768.66;;;16.98;80.47
75418;BME280;63997;52.112;5.420;2023-10-08T10:43:35;102774.03;;;16.98;80.55
75418;BME280;63997;52.112;5.420;2023-10-08T10:46:06;102770.88;;;16.96;81.01
75418;BME280;63997;52.112;5.420;2023-10-08T10:48:52;102777.38;;;17.03;81.58
75418;BME280;63997;52.112;5.420;2023-10-08T10:51:47;102775.63;;;17.07;80.64
75418;BME280;63997;52.112;5.420;2023-10-08T10:54:16;102770.88;;;17.04;81.48
75418;BME280;63997;52.112;5.420;2023-10-08T10:56:47;102759.97;;;17.09;81.52
75418;BME280;63997;52.112;5.420;2023-10-08T10:59:14;102750.78;;;17.10;81.52
75418;BME280;63997;52.112;5.420;2023-10-08T11:01:53;102754.59;;;17.01;80.86
75418;BME280;63997;52.112;5.420;2023-10-08T11:04:32;102750.19;;;16.96;81.27
75418;BME280;63997;52.112;5.420;2023-10-08T11:07:00;102750.00;;;16.92;82.35
75418;BME280;63997;52.112;5.420;2023-10-08T11:09:27;102747.63;;;16.91;82.76
75418;BME280;63997;52.112;5.420;2023-10-08T11:12:08;102749.38;;;16.96;82.27
75418;BME280;63997;52.112;5.420;2023-10-08T11:14:39;102753.97;;;16.95;83.09
75418;BME280;63997;52.112;5.420;2023-10-08T11:17:11;102749.22;;;16.92;82.13
75418;BME280;63997;52.112;5.420;2023-10-08T11:19:37;102761.19;;;16.77;81.52
75418;BME280;63997;52.112;5.420;2023-10-08T11:22:04;102764.34;;;16.71;81.85
75418;BME280;63997;52.112;5.420;2023-10-08T11:24:33;102757.72;;;16.77;82.09
75418;BME280;63997;52.112;5.420;2023-10-08T11:27:01;102755.06;;;16.85;82.52
75418;BME280;63997;52.112;5.420;2023-10-08T11:29:46;102751.59;;;16.85;82.28
75418;BME280;63997;52.112;5.420;2023-10-08T11:32:14;102748.75;;;16.90;82.25
75418;BME280;63997;52.112;5.420;2023-10-08T11:34:47;102745.56;;;16.88;82.60
75418;BME280;63997;52.112;5.420;2023-10-08T11:37:29;102751.72;;;16.80;81.48
75418;BME280;63997;52.112;5.420;2023-10-08T11:39:56;102739.84;;;16.72;81.58
75418;BME280;63997;52.112;5.420;2023-10-08T11:42:26;102738.56;;;16.70;81.74
75418;BME280;63997;52.112;5.420;2023-10-08T11:44:58;102740.00;;;16.67;82.19
75418;BME280;63997;52.112;5.420;2023-10-08T11:47:25;102746.94;;;16.68;82.16
75418;BME280;63997;52.112;5.420;2023-10-08T11:49:57;102745.22;;;16.72;82.99
75418;BME280;63997;52.112;5.420;2023-10-08T11:52:37;102737.34;;;16.76;82.12
75418;BME280;63997;52.112;5.420;2023-10-08T11:55:10;102733.88;;;16.84;81.71
75418;BME280;63997;52.112;5.420;2023-10-08T11:57:46;102731.19;;;16.84;81.58
75418;BME280;63997;52.112;5.420;2023-10-08T12:00:16;102721.38;;;16.88;80.79
75418;BME280;63997;52.112;5.420;2023-10-08T12:02:58;102726.13;;;16.91;80.54
75418;BME280;63997;52.112;5.420;2023-10-08T12:05:24;102717.75;;;16.92;81.50
75418;BME280;63997;52.112;5.420;2023-10-08T12:07:52;102709.84;;;16.96;81.25
75418;BME280;63997;52.112;5.420;2023-10-08T12:10:19;102703.19;;;16.93;81.40
75418;BME280;63997;52.112;5.420;2023-10-08T12:12:50;102709.84;;;16.96;81.14
75418;BME280;63997;52.112;5.420;2023-10-08T12:15:21;102695.16;;;17.02;81.31
75418;BME280;63997;52.112;5.420;2023-10-08T12:17:49;102689.13;;;17.05;81.35
75418;BME280;63997;52.112;5.420;2023-10-08T12:20:36;102685.97;;;17.03;81.25
75418;BME280;63997;52.112;5.420;2023-10-08T12:23:05;102679.63;;;16.99;81.64
75418;BME280;63997;52.112;5.420;2023-10-08T12:25:32;102673.34;;;16.95;81.21
75418;BME280;63997;52.112;5.420;2023-10-08T12:28:00;102676.94;;;16.99;81.99
75418;BME280;63997;52.112;5.420;2023-10-08T12:30:31;102672.19;;;17.05;81.20
75418;BME280;63997;52.112;5.420;2023-10-08T12:32:59;102658.59;;;17.10;81.67
75418;BME280;63997;52.112;5.420;2023-10-08T12:35:27;102667.78;;;17.17;80.97
75418;BME280;63997;52.112;5.420;2023-10-08T12:37:55;102655.25;;;17.22;81.21
75418;BME280;63997;52.112;5.420;2023-10-08T12:40:22;102657.66;;;17.23;80.91
75418;BME280;63997;52.112;5.420;2023-10-08T12:42:59;102649.72;;;17.27;80.54
75418;BME280;63997;52.112;5.420;2023-10-08T12:45:26;102653.06;;;17.24;80.86
75418;BME280;63997;52.112;5.420;2023-10-08T12:47:54;102651.66;;;17.17;80.43
75418;BME280;63997;52.112;5.420;2023-10-08T12:50:20;102655.41;;;17.16;80.77
75418;BME280;63997;52.112;5.420;2023-10-08T12:52:56;102645.16;;;17.18;80.18
75418;BME280;63997;52.112;5.420;2023-10-08T12:55:23;102637.88;;;17.19;80.76
75418;BME280;63997;52.112;5.420;2023-10-08T12:57:53;102641.34;;;17.19;79.87
75418;BME280;63997;52.112;5.420;2023-10-08T13:00:32;102638.19;;;17.17;79.88
75418;BME280;63997;52.112;5.420;2023-10-08T13:02:58;102635.03;;;17.15;80.54
75418;BME280;63997;52.112;5.420;2023-10-08T13:05:27;102639.16;;;17.13;80.00
75418;BME280;63997;52.112;5.420;2023-10-08T13:07:55;102637.09;;;17.10;79.50
75418;BME280;63997;52.112;5.420;2023-10-08T13:10:23;102635.50;;;17.09;80.38
75418;BME280;63997;52.112;5.420;2023-10-08T13:12:49;102634.88;;;17.12;79.97
75418;BME280;63997;52.112;5.420;2023-10-08T13:15:16;102638.03;;;17.14;80.19